ESSV

Visby Airport

Visby, Sweden
METAR ESSV 172250Z AUTO 07007KT 9999 NCD 19/17 Q1011
Observed Flight Rules
Jul-17 @ 22:50 UTC (28 minutes ago) Visual Flight Rules
Wind Visibility Clouds
70° at 7 knots 10,000+ meters
  • Clear skies
Temperatures Readings
Current 19°C / 66°F
Dewpoint 17°C / 63°F
Humidity 88%
Altimeter 29.85" Hg
Pressure 1011 hPa
Elevation 47
METAR ESSV 172250Z AUTO 07007KT 9999 NCD 19/17 Q1011
Observed Flight Rules
Jul-17 @ 22:50 UTC
(28 minutes ago)
VFR
Wind Visibility
70° at 7 knots 10,000+ meters
Clouds
  • Clear skies
Temperature Dewpoint
19°C / 66°F 17°C / 63°F
Humidity Altimeter Pressure
88% 29.85" Hg 1011 hPa